sensor_id;sensor_type;location;lat;lon;timestamp;P1;durP1;ratioP1;P2;durP2;ratioP2
30605;SDS011;17371;51.328;3.860;2022-10-30T00:01:57;17.30;;;7.13;;
30605;SDS011;17371;51.328;3.860;2022-10-30T00:04:23;19.60;;;7.50;;
30605;SDS011;17371;51.328;3.860;2022-10-30T00:06:48;16.87;;;7.57;;
30605;SDS011;17371;51.328;3.860;2022-10-30T00:09:13;18.77;;;7.40;;
30605;SDS011;17371;51.328;3.860;2022-10-30T00:11:39;17.20;;;6.90;;
30605;SDS011;17371;51.328;3.860;2022-10-30T00:14:04;20.07;;;7.43;;
30605;SDS011;17371;51.328;3.860;2022-10-30T00:16:30;23.60;;;6.77;;
30605;SDS011;17371;51.328;3.860;2022-10-30T00:18:56;17.07;;;6.97;;
30605;SDS011;17371;51.328;3.860;2022-10-30T00:21:22;21.17;;;7.60;;
30605;SDS011;17371;51.328;3.860;2022-10-30T00:23:48;22.37;;;7.70;;
30605;SDS011;17371;51.328;3.860;2022-10-30T00:26:14;21.35;;;7.65;;
30605;SDS011;17371;51.328;3.860;2022-10-30T00:28:40;20.48;;;8.00;;
30605;SDS011;17371;51.328;3.860;2022-10-30T00:31:06;20.37;;;8.27;;
30605;SDS011;17371;51.328;3.860;2022-10-30T00:33:31;18.60;;;7.40;;
30605;SDS011;17371;51.328;3.860;2022-10-30T00:35:58;21.77;;;6.72;;
30605;SDS011;17371;51.328;3.860;2022-10-30T00:38:24;22.50;;;7.65;;
30605;SDS011;17371;51.328;3.860;2022-10-30T00:40:49;19.07;;;7.20;;
30605;SDS011;17371;51.328;3.860;2022-10-30T00:43:27;19.23;;;7.37;;
30605;SDS011;17371;51.328;3.860;2022-10-30T00:45:59;25.15;;;8.18;;
30605;SDS011;17371;51.328;3.860;2022-10-30T00:48:26;18.90;;;7.43;;
30605;SDS011;17371;51.328;3.860;2022-10-30T00:50:52;24.13;;;7.27;;
30605;SDS011;17371;51.328;3.860;2022-10-30T00:53:20;22.83;;;7.97;;
30605;SDS011;17371;51.328;3.860;2022-10-30T00:55:46;20.02;;;7.55;;
30605;SDS011;17371;51.328;3.860;2022-10-30T00:58:13;17.17;;;7.57;;
30605;SDS011;17371;51.328;3.860;2022-10-30T01:00:41;26.87;;;8.07;;
30605;SDS011;17371;51.328;3.860;2022-10-30T01:03:10;19.52;;;8.50;;
30605;SDS011;17371;51.328;3.860;2022-10-30T01:05:36;19.67;;;8.20;;
30605;SDS011;17371;51.328;3.860;2022-10-30T01:08:02;22.87;;;7.90;;
30605;SDS011;17371;51.328;3.860;2022-10-30T01:10:29;23.63;;;7.80;;
30605;SDS011;17371;51.328;3.860;2022-10-30T01:12:55;24.98;;;7.68;;
30605;SDS011;17371;51.328;3.860;2022-10-30T01:15:22;22.87;;;8.40;;
30605;SDS011;17371;51.328;3.860;2022-10-30T01:17:52;21.00;;;7.93;;
30605;SDS011;17371;51.328;3.860;2022-10-30T01:20:30;20.25;;;8.07;;
30605;SDS011;17371;51.328;3.860;2022-10-30T01:23:06;21.83;;;8.40;;
30605;SDS011;17371;51.328;3.860;2022-10-30T01:25:44;24.13;;;8.35;;
30605;SDS011;17371;51.328;3.860;2022-10-30T01:28:17;17.60;;;8.07;;
30605;SDS011;17371;51.328;3.860;2022-10-30T01:30:57;18.58;;;8.05;;
30605;SDS011;17371;51.328;3.860;2022-10-30T01:33:29;21.42;;;8.43;;
30605;SDS011;17371;51.328;3.860;2022-10-30T01:36:02;21.33;;;8.50;;
30605;SDS011;17371;51.328;3.860;2022-10-30T01:38:33;18.17;;;7.90;;
30605;SDS011;17371;51.328;3.860;2022-10-30T01:41:02;29.90;;;7.90;;
30605;SDS011;17371;51.328;3.860;2022-10-30T01:43:27;26.73;;;8.60;;
30605;SDS011;17371;51.328;3.860;2022-10-30T01:45:59;17.07;;;7.93;;
30605;SDS011;17371;51.328;3.860;2022-10-30T01:48:39;19.33;;;7.88;;
30605;SDS011;17371;51.328;3.860;2022-10-30T01:51:15;22.88;;;8.25;;
30605;SDS011;17371;51.328;3.860;2022-10-30T01:53:45;25.00;;;8.05;;
30605;SDS011;17371;51.328;3.860;2022-10-30T01:56:19;22.05;;;8.20;;
30605;SDS011;17371;51.328;3.860;2022-10-30T01:58:53;23.60;;;8.17;;
30605;SDS011;17371;51.328;3.860;2022-10-30T02:01:24;18.35;;;7.50;;
30605;SDS011;17371;51.328;3.860;2022-10-30T02:03:50;21.45;;;8.18;;
30605;SDS011;17371;51.328;3.860;2022-10-30T02:06:16;25.40;;;7.77;;
30605;SDS011;17371;51.328;3.860;2022-10-30T02:08:41;19.70;;;8.03;;
30605;SDS011;17371;51.328;3.860;2022-10-30T02:11:07;19.92;;;8.20;;
30605;SDS011;17371;51.328;3.860;2022-10-30T02:13:34;22.88;;;8.38;;
30605;SDS011;17371;51.328;3.860;2022-10-30T02:16:00;25.77;;;8.50;;
30605;SDS011;17371;51.328;3.860;2022-10-30T02:18:26;22.58;;;8.43;;
30605;SDS011;17371;51.328;3.860;2022-10-30T02:20:52;17.77;;;7.73;;
30605;SDS011;17371;51.328;3.860;2022-10-30T02:23:18;21.73;;;8.15;;
30605;SDS011;17371;51.328;3.860;2022-10-30T02:25:43;26.37;;;8.50;;
30605;SDS011;17371;51.328;3.860;2022-10-30T02:28:09;22.17;;;8.03;;
30605;SDS011;17371;51.328;3.860;2022-10-30T02:30:34;18.43;;;7.93;;
30605;SDS011;17371;51.328;3.860;2022-10-30T02:32:59;19.60;;;8.40;;
30605;SDS011;17371;51.328;3.860;2022-10-30T02:35:25;20.90;;;8.38;;
30605;SDS011;17371;51.328;3.860;2022-10-30T02:37:51;21.23;;;8.83;;
30605;SDS011;17371;51.328;3.860;2022-10-30T02:40:17;25.70;;;9.07;;
30605;SDS011;17371;51.328;3.860;2022-10-30T02:42:42;21.88;;;8.65;;
30605;SDS011;17371;51.328;3.860;2022-10-30T02:45:08;17.27;;;8.43;;
30605;SDS011;17371;51.328;3.860;2022-10-30T02:47:34;32.85;;;9.77;;
30605;SDS011;17371;51.328;3.860;2022-10-30T02:49:59;20.27;;;9.03;;
30605;SDS011;17371;51.328;3.860;2022-10-30T02:52:25;27.80;;;9.60;;
30605;SDS011;17371;51.328;3.860;2022-10-30T02:54:51;21.67;;;10.00;;
30605;SDS011;17371;51.328;3.860;2022-10-30T02:57:17;24.83;;;9.35;;
30605;SDS011;17371;51.328;3.860;2022-10-30T02:59:42;25.97;;;10.43;;
30605;SDS011;17371;51.328;3.860;2022-10-30T03:02:07;19.40;;;9.40;;
30605;SDS011;17371;51.328;3.860;2022-10-30T03:04:33;34.30;;;9.80;;
30605;SDS011;17371;51.328;3.860;2022-10-30T03:06:58;25.30;;;9.50;;
30605;SDS011;17371;51.328;3.860;2022-10-30T03:09:24;24.05;;;10.32;;
30605;SDS011;17371;51.328;3.860;2022-10-30T03:11:50;24.63;;;9.83;;
30605;SDS011;17371;51.328;3.860;2022-10-30T03:14:16;24.08;;;10.05;;
30605;SDS011;17371;51.328;3.860;2022-10-30T03:16:41;28.90;;;10.27;;
30605;SDS011;17371;51.328;3.860;2022-10-30T03:19:06;24.37;;;9.97;;
30605;SDS011;17371;51.328;3.860;2022-10-30T03:21:32;27.17;;;10.23;;
30605;SDS011;17371;51.328;3.860;2022-10-30T03:23:57;32.07;;;9.10;;
30605;SDS011;17371;51.328;3.860;2022-10-30T03:26:22;32.07;;;10.40;;
30605;SDS011;17371;51.328;3.860;2022-10-30T03:28:49;27.10;;;9.23;;
30605;SDS011;17371;51.328;3.860;2022-10-30T03:31:15;22.20;;;9.67;;
30605;SDS011;17371;51.328;3.860;2022-10-30T03:33:42;21.23;;;9.13;;
30605;SDS011;17371;51.328;3.860;2022-10-30T03:36:09;24.38;;;10.07;;
30605;SDS011;17371;51.328;3.860;2022-10-30T03:38:35;19.83;;;9.20;;
30605;SDS011;17371;51.328;3.860;2022-10-30T03:41:01;26.97;;;10.83;;
30605;SDS011;17371;51.328;3.860;2022-10-30T03:43:26;26.20;;;9.23;;
30605;SDS011;17371;51.328;3.860;2022-10-30T03:45:54;23.73;;;10.30;;
30605;SDS011;17371;51.328;3.860;2022-10-30T03:48:21;27.63;;;10.83;;
30605;SDS011;17371;51.328;3.860;2022-10-30T03:50:47;20.48;;;9.25;;
30605;SDS011;17371;51.328;3.860;2022-10-30T03:53:13;25.23;;;9.90;;
30605;SDS011;17371;51.328;3.860;2022-10-30T03:55:39;23.08;;;9.13;;
30605;SDS011;17371;51.328;3.860;2022-10-30T03:58:05;21.65;;;9.48;;
30605;SDS011;17371;51.328;3.860;2022-10-30T04:00:31;24.92;;;10.02;;
30605;SDS011;17371;51.328;3.860;2022-10-30T04:02:58;24.47;;;10.10;;
30605;SDS011;17371;51.328;3.860;2022-10-30T04:05:24;20.52;;;9.30;;
30605;SDS011;17371;51.328;3.860;2022-10-30T04:07:54;24.42;;;9.27;;
30605;SDS011;17371;51.328;3.860;2022-10-30T04:10:20;23.30;;;10.23;;
30605;SDS011;17371;51.328;3.860;2022-10-30T04:12:45;24.20;;;9.57;;
30605;SDS011;17371;51.328;3.860;2022-10-30T04:15:10;25.13;;;10.17;;
30605;SDS011;17371;51.328;3.860;2022-10-30T04:17:36;27.57;;;10.73;;
30605;SDS011;17371;51.328;3.860;2022-10-30T04:20:03;22.10;;;9.60;;
30605;SDS011;17371;51.328;3.860;2022-10-30T04:22:29;27.15;;;10.27;;
30605;SDS011;17371;51.328;3.860;2022-10-30T04:24:54;17.90;;;10.33;;
30605;SDS011;17371;51.328;3.860;2022-10-30T04:27:20;27.47;;;11.07;;
30605;SDS011;17371;51.328;3.860;2022-10-30T04:29:45;23.88;;;9.82;;
30605;SDS011;17371;51.328;3.860;2022-10-30T04:32:11;22.42;;;10.25;;
30605;SDS011;17371;51.328;3.860;2022-10-30T04:34:36;25.90;;;10.87;;
30605;SDS011;17371;51.328;3.860;2022-10-30T04:37:03;28.43;;;9.80;;
30605;SDS011;17371;51.328;3.860;2022-10-30T04:39:29;24.73;;;10.20;;
30605;SDS011;17371;51.328;3.860;2022-10-30T04:41:54;29.17;;;10.53;;
30605;SDS011;17371;51.328;3.860;2022-10-30T04:44:19;25.65;;;10.20;;
30605;SDS011;17371;51.328;3.860;2022-10-30T04:46:45;25.10;;;9.87;;
30605;SDS011;17371;51.328;3.860;2022-10-30T04:49:10;24.03;;;10.20;;
30605;SDS011;17371;51.328;3.860;2022-10-30T04:51:36;23.83;;;10.27;;
30605;SDS011;17371;51.328;3.860;2022-10-30T04:54:02;23.42;;;9.95;;
30605;SDS011;17371;51.328;3.860;2022-10-30T04:56:28;25.05;;;9.85;;
30605;SDS011;17371;51.328;3.860;2022-10-30T04:58:53;22.73;;;10.20;;
30605;SDS011;17371;51.328;3.860;2022-10-30T05:01:19;29.48;;;11.55;;
30605;SDS011;17371;51.328;3.860;2022-10-30T05:03:44;24.90;;;10.48;;
30605;SDS011;17371;51.328;3.860;2022-10-30T05:06:12;21.97;;;9.73;;
30605;SDS011;17371;51.328;3.860;2022-10-30T05:08:41;27.10;;;9.85;;
30605;SDS011;17371;51.328;3.860;2022-10-30T05:11:07;20.77;;;10.10;;
30605;SDS011;17371;51.328;3.860;2022-10-30T05:13:33;23.77;;;9.87;;
30605;SDS011;17371;51.328;3.860;2022-10-30T05:15:58;22.58;;;10.88;;
30605;SDS011;17371;51.328;3.860;2022-10-30T05:18:24;24.20;;;10.30;;
30605;SDS011;17371;51.328;3.860;2022-10-30T05:20:49;23.67;;;10.47;;
30605;SDS011;17371;51.328;3.860;2022-10-30T05:23:14;24.93;;;10.00;;
30605;SDS011;17371;51.328;3.860;2022-10-30T05:25:40;25.53;;;10.53;;
30605;SDS011;17371;51.328;3.860;2022-10-30T05:28:06;19.80;;;10.40;;
30605;SDS011;17371;51.328;3.860;2022-10-30T05:30:33;22.08;;;10.55;;
30605;SDS011;17371;51.328;3.860;2022-10-30T05:32:59;21.42;;;10.52;;
30605;SDS011;17371;51.328;3.860;2022-10-30T05:35:24;26.53;;;10.67;;
30605;SDS011;17371;51.328;3.860;2022-10-30T05:37:50;27.60;;;10.35;;
30605;SDS011;17371;51.328;3.860;2022-10-30T05:40:15;27.80;;;11.03;;
30605;SDS011;17371;51.328;3.860;2022-10-30T05:42:43;29.17;;;11.17;;
30605;SDS011;17371;51.328;3.860;2022-10-30T05:45:10;29.00;;;11.38;;
30605;SDS011;17371;51.328;3.860;2022-10-30T05:47:36;25.10;;;11.52;;
30605;SDS011;17371;51.328;3.860;2022-10-30T05:50:01;30.67;;;12.43;;
30605;SDS011;17371;51.328;3.860;2022-10-30T05:52:27;23.37;;;10.83;;
30605;SDS011;17371;51.328;3.860;2022-10-30T05:54:52;28.93;;;12.13;;
30605;SDS011;17371;51.328;3.860;2022-10-30T05:57:17;28.70;;;12.80;;
30605;SDS011;17371;51.328;3.860;2022-10-30T05:59:43;28.45;;;11.68;;
30605;SDS011;17371;51.328;3.860;2022-10-30T06:02:09;25.23;;;11.98;;
30605;SDS011;17371;51.328;3.860;2022-10-30T06:04:35;27.93;;;11.10;;
30605;SDS011;17371;51.328;3.860;2022-10-30T06:07:00;38.00;;;12.07;;
30605;SDS011;17371;51.328;3.860;2022-10-30T06:09:26;31.13;;;11.70;;
30605;SDS011;17371;51.328;3.860;2022-10-30T06:11:51;34.03;;;11.93;;
30605;SDS011;17371;51.328;3.860;2022-10-30T06:14:17;33.03;;;12.43;;
30605;SDS011;17371;51.328;3.860;2022-10-30T06:16:42;33.05;;;11.95;;
30605;SDS011;17371;51.328;3.860;2022-10-30T06:19:09;27.60;;;11.38;;
30605;SDS011;17371;51.328;3.860;2022-10-30T06:21:34;27.90;;;11.60;;
30605;SDS011;17371;51.328;3.860;2022-10-30T06:24:00;26.85;;;11.38;;
30605;SDS011;17371;51.328;3.860;2022-10-30T06:26:25;28.30;;;11.47;;
30605;SDS011;17371;51.328;3.860;2022-10-30T06:28:50;35.07;;;13.00;;
30605;SDS011;17371;51.328;3.860;2022-10-30T06:31:16;28.10;;;11.70;;
30605;SDS011;17371;51.328;3.860;2022-10-30T06:33:41;28.67;;;12.73;;
30605;SDS011;17371;51.328;3.860;2022-10-30T06:36:08;28.50;;;12.18;;
30605;SDS011;17371;51.328;3.860;2022-10-30T06:38:34;26.80;;;12.35;;
30605;SDS011;17371;51.328;3.860;2022-10-30T06:40:59;26.63;;;11.60;;
30605;SDS011;17371;51.328;3.860;2022-10-30T06:43:24;28.67;;;11.83;;
30605;SDS011;17371;51.328;3.860;2022-10-30T06:45:50;32.37;;;11.77;;
30605;SDS011;17371;51.328;3.860;2022-10-30T06:48:15;33.57;;;13.10;;
30605;SDS011;17371;51.328;3.860;2022-10-30T06:50:41;28.57;;;12.63;;
30605;SDS011;17371;51.328;3.860;2022-10-30T06:53:07;30.73;;;12.48;;
30605;SDS011;17371;51.328;3.860;2022-10-30T06:55:33;32.35;;;12.23;;
30605;SDS011;17371;51.328;3.860;2022-10-30T06:57:58;27.33;;;13.03;;
30605;SDS011;17371;51.328;3.860;2022-10-30T07:00:23;30.75;;;13.27;;
30605;SDS011;17371;51.328;3.860;2022-10-30T07:02:58;29.60;;;12.60;;
30605;SDS011;17371;51.328;3.860;2022-10-30T07:05:24;28.27;;;12.48;;
30605;SDS011;17371;51.328;3.860;2022-10-30T07:07:50;30.77;;;13.10;;
30605;SDS011;17371;51.328;3.860;2022-10-30T07:10:17;27.97;;;12.43;;
30605;SDS011;17371;51.328;3.860;2022-10-30T07:12:49;32.90;;;13.27;;
30605;SDS011;17371;51.328;3.860;2022-10-30T07:15:15;33.28;;;12.10;;
30605;SDS011;17371;51.328;3.860;2022-10-30T07:17:40;29.60;;;12.00;;
30605;SDS011;17371;51.328;3.860;2022-10-30T07:20:06;31.20;;;12.90;;
30605;SDS011;17371;51.328;3.860;2022-10-30T07:22:32;31.75;;;13.13;;
30605;SDS011;17371;51.328;3.860;2022-10-30T07:24:57;33.53;;;12.90;;
30605;SDS011;17371;51.328;3.860;2022-10-30T07:27:24;31.15;;;13.50;;
30605;SDS011;17371;51.328;3.860;2022-10-30T07:29:49;32.40;;;13.75;;
30605;SDS011;17371;51.328;3.860;2022-10-30T07:32:15;32.53;;;13.40;;
30605;SDS011;17371;51.328;3.860;2022-10-30T07:34:40;37.47;;;13.05;;
30605;SDS011;17371;51.328;3.860;2022-10-30T07:37:05;29.08;;;13.43;;
30605;SDS011;17371;51.328;3.860;2022-10-30T07:39:31;29.70;;;13.00;;
30605;SDS011;17371;51.328;3.860;2022-10-30T07:41:56;36.47;;;13.30;;
30605;SDS011;17371;51.328;3.860;2022-10-30T07:44:23;33.13;;;13.07;;
30605;SDS011;17371;51.328;3.860;2022-10-30T07:46:48;37.03;;;14.38;;
30605;SDS011;17371;51.328;3.860;2022-10-30T07:49:13;34.63;;;13.57;;
30605;SDS011;17371;51.328;3.860;2022-10-30T07:51:39;27.40;;;12.83;;
30605;SDS011;17371;51.328;3.860;2022-10-30T07:54:04;33.90;;;13.40;;
30605;SDS011;17371;51.328;3.860;2022-10-30T07:56:29;26.80;;;12.90;;
30605;SDS011;17371;51.328;3.860;2022-10-30T07:58:55;31.95;;;12.90;;
30605;SDS011;17371;51.328;3.860;2022-10-30T08:01:22;29.23;;;13.20;;
30605;SDS011;17371;51.328;3.860;2022-10-30T08:03:47;29.70;;;14.07;;
30605;SDS011;17371;51.328;3.860;2022-10-30T08:06:12;32.00;;;13.82;;
30605;SDS011;17371;51.328;3.860;2022-10-30T08:08:38;30.97;;;13.80;;
30605;SDS011;17371;51.328;3.860;2022-10-30T08:11:03;32.30;;;14.03;;
30605;SDS011;17371;51.328;3.860;2022-10-30T08:13:29;34.97;;;13.90;;
30605;SDS011;17371;51.328;3.860;2022-10-30T08:15:54;39.07;;;14.23;;
30605;SDS011;17371;51.328;3.860;2022-10-30T08:18:21;30.05;;;13.05;;
30605;SDS011;17371;51.328;3.860;2022-10-30T08:20:47;29.90;;;12.90;;
30605;SDS011;17371;51.328;3.860;2022-10-30T08:23:13;29.23;;;13.23;;
30605;SDS011;17371;51.328;3.860;2022-10-30T08:25:38;28.10;;;12.73;;
30605;SDS011;17371;51.328;3.860;2022-10-30T08:28:04;25.97;;;12.10;;
30605;SDS011;17371;51.328;3.860;2022-10-30T08:30:31;28.90;;;11.82;;
30605;SDS011;17371;51.328;3.860;2022-10-30T08:32:57;27.80;;;12.57;;
30605;SDS011;17371;51.328;3.860;2022-10-30T08:35:24;25.97;;;12.17;;
30605;SDS011;17371;51.328;3.860;2022-10-30T08:37:50;28.48;;;12.50;;
30605;SDS011;17371;51.328;3.860;2022-10-30T08:40:19;29.42;;;11.60;;
30605;SDS011;17371;51.328;3.860;2022-10-30T08:42:48;30.77;;;12.87;;
30605;SDS011;17371;51.328;3.860;2022-10-30T08:45:14;23.73;;;11.73;;
30605;SDS011;17371;51.328;3.860;2022-10-30T08:47:39;29.67;;;13.67;;
30605;SDS011;17371;51.328;3.860;2022-10-30T08:50:05;27.77;;;12.20;;
30605;SDS011;17371;51.328;3.860;2022-10-30T08:52:32;30.13;;;14.05;;
30605;SDS011;17371;51.328;3.860;2022-10-30T08:54:57;32.50;;;13.40;;
30605;SDS011;17371;51.328;3.860;2022-10-30T08:57:23;29.13;;;12.07;;
30605;SDS011;17371;51.328;3.860;2022-10-30T08:59:48;34.33;;;13.07;;
30605;SDS011;17371;51.328;3.860;2022-10-30T09:02:14;24.30;;;12.73;;
30605;SDS011;17371;51.328;3.860;2022-10-30T09:04:39;33.23;;;11.67;;
30605;SDS011;17371;51.328;3.860;2022-10-30T09:07:04;30.13;;;12.07;;
30605;SDS011;17371;51.328;3.860;2022-10-30T09:09:31;26.83;;;10.68;;
30605;SDS011;17371;51.328;3.860;2022-10-30T09:11:56;30.53;;;10.00;;
30605;SDS011;17371;51.328;3.860;2022-10-30T09:14:22;27.80;;;10.07;;
30605;SDS011;17371;51.328;3.860;2022-10-30T09:16:47;21.23;;;10.43;;
30605;SDS011;17371;51.328;3.860;2022-10-30T09:19:13;19.13;;;9.53;;
30605;SDS011;17371;51.328;3.860;2022-10-30T09:21:38;21.00;;;9.87;;
30605;SDS011;17371;51.328;3.860;2022-10-30T09:24:03;21.60;;;10.20;;
30605;SDS011;17371;51.328;3.860;2022-10-30T09:26:31;22.52;;;9.63;;
30605;SDS011;17371;51.328;3.860;2022-10-30T09:28:56;26.75;;;9.63;;
30605;SDS011;17371;51.328;3.860;2022-10-30T09:31:21;32.10;;;10.13;;
30605;SDS011;17371;51.328;3.860;2022-10-30T09:33:47;20.20;;;9.53;;
30605;SDS011;17371;51.328;3.860;2022-10-30T09:36:12;25.97;;;10.27;;
30605;SDS011;17371;51.328;3.860;2022-10-30T09:38:38;23.13;;;9.32;;
30605;SDS011;17371;51.328;3.860;2022-10-30T09:41:06;21.70;;;9.20;;
30605;SDS011;17371;51.328;3.860;2022-10-30T09:43:49;25.92;;;9.70;;
30605;SDS011;17371;51.328;3.860;2022-10-30T09:46:25;19.70;;;8.77;;
30605;SDS011;17371;51.328;3.860;2022-10-30T09:52:05;19.40;;;8.27;;
30605;SDS011;17371;51.328;3.860;2022-10-30T09:54:35;15.82;;;7.90;;
30605;SDS011;17371;51.328;3.860;2022-10-30T09:57:18;18.58;;;7.78;;
30605;SDS011;17371;51.328;3.860;2022-10-30T09:59:56;17.23;;;7.20;;
30605;SDS011;17371;51.328;3.860;2022-10-30T10:02:31;19.52;;;7.57;;
30605;SDS011;17371;51.328;3.860;2022-10-30T10:04:59;18.63;;;7.80;;
30605;SDS011;17371;51.328;3.860;2022-10-30T10:07:28;16.92;;;7.60;;
30605;SDS011;17371;51.328;3.860;2022-10-30T10:09:56;17.90;;;7.15;;
30605;SDS011;17371;51.328;3.860;2022-10-30T10:12:25;17.57;;;7.20;;
30605;SDS011;17371;51.328;3.860;2022-10-30T10:14:55;15.65;;;6.90;;
30605;SDS011;17371;51.328;3.860;2022-10-30T10:17:23;21.02;;;7.38;;
30605;SDS011;17371;51.328;3.860;2022-10-30T10:19:54;17.05;;;7.40;;
30605;SDS011;17371;51.328;3.860;2022-10-30T10:22:23;15.30;;;6.60;;
30605;SDS011;17371;51.328;3.860;2022-10-30T10:24:50;14.40;;;6.40;;
30605;SDS011;17371;51.328;3.860;2022-10-30T10:27:30;16.30;;;6.70;;
30605;SDS011;17371;51.328;3.860;2022-10-30T10:30:09;19.23;;;6.25;;
30605;SDS011;17371;51.328;3.860;2022-10-30T10:32:48;13.30;;;6.00;;
30605;SDS011;17371;51.328;3.860;2022-10-30T10:38:20;14.43;;;6.37;;
30605;SDS011;17371;51.328;3.860;2022-10-30T10:40:52;18.15;;;6.10;;
30605;SDS011;17371;51.328;3.860;2022-10-30T10:43:27;14.15;;;6.43;;
30605;SDS011;17371;51.328;3.860;2022-10-30T10:46:03;16.35;;;6.43;;
30605;SDS011;17371;51.328;3.860;2022-10-30T10:48:43;17.50;;;6.60;;
30605;SDS011;17371;51.328;3.860;2022-10-30T10:51:16;16.47;;;6.13;;
30605;SDS011;17371;51.328;3.860;2022-10-30T10:53:45;13.90;;;6.07;;
30605;SDS011;17371;51.328;3.860;2022-10-30T10:56:12;15.85;;;6.10;;
30605;SDS011;17371;51.328;3.860;2022-10-30T10:58:38;16.97;;;7.50;;
30605;SDS011;17371;51.328;3.860;2022-10-30T11:01:11;15.60;;;7.80;;
30605;SDS011;17371;51.328;3.860;2022-10-30T11:03:42;19.20;;;6.95;;
30605;SDS011;17371;51.328;3.860;2022-10-30T11:06:17;19.00;;;8.85;;
30605;SDS011;17371;51.328;3.860;2022-10-30T11:08:45;23.70;;;9.43;;
30605;SDS011;17371;51.328;3.860;2022-10-30T11:11:11;18.25;;;9.35;;
30605;SDS011;17371;51.328;3.860;2022-10-30T11:13:37;25.33;;;9.33;;
30605;SDS011;17371;51.328;3.860;2022-10-30T11:16:06;18.10;;;8.45;;
30605;SDS011;17371;51.328;3.860;2022-10-30T11:18:38;18.13;;;8.98;;
30605;SDS011;17371;51.328;3.860;2022-10-30T11:21:06;17.27;;;8.52;;
30605;SDS011;17371;51.328;3.860;2022-10-30T11:23:36;25.27;;;10.05;;
30605;SDS011;17371;51.328;3.860;2022-10-30T11:26:03;17.00;;;8.27;;
30605;SDS011;17371;51.328;3.860;2022-10-30T11:28:34;20.17;;;8.68;;
30605;SDS011;17371;51.328;3.860;2022-10-30T11:31:17;21.45;;;9.15;;
30605;SDS011;17371;51.328;3.860;2022-10-30T11:33:46;17.60;;;8.70;;
30605;SDS011;17371;51.328;3.860;2022-10-30T11:36:13;18.83;;;8.97;;
30605;SDS011;17371;51.328;3.860;2022-10-30T11:38:39;18.35;;;8.63;;
30605;SDS011;17371;51.328;3.860;2022-10-30T11:41:04;17.70;;;8.60;;
30605;SDS011;17371;51.328;3.860;2022-10-30T11:43:30;15.45;;;8.10;;
30605;SDS011;17371;51.328;3.860;2022-10-30T11:45:55;16.13;;;7.77;;
30605;SDS011;17371;51.328;3.860;2022-10-30T11:48:22;16.53;;;7.47;;
30605;SDS011;17371;51.328;3.860;2022-10-30T11:50:51;19.05;;;7.60;;
30605;SDS011;17371;51.328;3.860;2022-10-30T11:53:21;17.42;;;7.38;;
30605;SDS011;17371;51.328;3.860;2022-10-30T11:55:49;19.33;;;7.13;;
30605;SDS011;17371;51.328;3.860;2022-10-30T11:58:19;18.58;;;7.50;;
30605;SDS011;17371;51.328;3.860;2022-10-30T12:00:47;18.33;;;6.80;;
30605;SDS011;17371;51.328;3.860;2022-10-30T12:03:28;13.82;;;6.75;;
30605;SDS011;17371;51.328;3.860;2022-10-30T12:06:06;14.27;;;6.00;;
30605;SDS011;17371;51.328;3.860;2022-10-30T12:08:32;14.50;;;5.53;;
30605;SDS011;17371;51.328;3.860;2022-10-30T12:10:58;13.77;;;5.47;;
30605;SDS011;17371;51.328;3.860;2022-10-30T12:13:25;17.50;;;5.35;;
30605;SDS011;17371;51.328;3.860;2022-10-30T12:16:02;13.77;;;5.40;;
30605;SDS011;17371;51.328;3.860;2022-10-30T12:18:31;11.48;;;5.30;;
30605;SDS011;17371;51.328;3.860;2022-10-30T12:20:57;13.07;;;5.47;;
30605;SDS011;17371;51.328;3.860;2022-10-30T12:23:23;11.90;;;5.17;;
30605;SDS011;17371;51.328;3.860;2022-10-30T12:25:50;15.45;;;5.75;;
30605;SDS011;17371;51.328;3.860;2022-10-30T12:28:17;17.73;;;5.70;;
30605;SDS011;17371;51.328;3.860;2022-10-30T12:30:45;14.18;;;5.40;;
30605;SDS011;17371;51.328;3.860;2022-10-30T12:33:14;13.73;;;5.15;;
30605;SDS011;17371;51.328;3.860;2022-10-30T12:35:43;13.70;;;5.20;;
30605;SDS011;17371;51.328;3.860;2022-10-30T12:38:12;14.40;;;5.45;;
30605;SDS011;17371;51.328;3.860;2022-10-30T12:40:40;15.15;;;4.80;;
30605;SDS011;17371;51.328;3.860;2022-10-30T12:43:10;12.35;;;5.85;;
30605;SDS011;17371;51.328;3.860;2022-10-30T12:45:40;14.20;;;5.10;;
30605;SDS011;17371;51.328;3.860;2022-10-30T12:48:10;13.25;;;4.78;;
30605;SDS011;17371;51.328;3.860;2022-10-30T12:50:40;12.18;;;5.03;;
30605;SDS011;17371;51.328;3.860;2022-10-30T12:53:14;15.40;;;5.10;;
30605;SDS011;17371;51.328;3.860;2022-10-30T12:55:46;16.67;;;5.20;;
30605;SDS011;17371;51.328;3.860;2022-10-30T12:58:15;15.30;;;7.05;;
30605;SDS011;17371;51.328;3.860;2022-10-30T13:00:48;18.88;;;7.03;;
30605;SDS011;17371;51.328;3.860;2022-10-30T13:03:20;15.02;;;6.80;;
30605;SDS011;17371;51.328;3.860;2022-10-30T13:05:50;14.02;;;7.20;;
30605;SDS011;17371;51.328;3.860;2022-10-30T13:08:19;16.00;;;6.95;;
30605;SDS011;17371;51.328;3.860;2022-10-30T13:10:48;18.38;;;7.30;;
30605;SDS011;17371;51.328;3.860;2022-10-30T13:13:15;15.68;;;7.55;;
30605;SDS011;17371;51.328;3.860;2022-10-30T13:15:45;17.33;;;7.15;;
30605;SDS011;17371;51.328;3.860;2022-10-30T13:18:13;20.25;;;8.38;;
30605;SDS011;17371;51.328;3.860;2022-10-30T13:20:40;16.92;;;7.57;;
30605;SDS011;17371;51.328;3.860;2022-10-30T13:23:09;15.25;;;7.90;;
30605;SDS011;17371;51.328;3.860;2022-10-30T13:25:38;19.10;;;7.80;;
30605;SDS011;17371;51.328;3.860;2022-10-30T13:28:09;19.20;;;7.47;;
30605;SDS011;17371;51.328;3.860;2022-10-30T13:30:40;14.23;;;6.78;;
30605;SDS011;17371;51.328;3.860;2022-10-30T13:33:11;14.43;;;5.20;;
30605;SDS011;17371;51.328;3.860;2022-10-30T13:35:41;15.15;;;6.03;;
30605;SDS011;17371;51.328;3.860;2022-10-30T13:38:19;9.23;;;4.70;;
30605;SDS011;17371;51.328;3.860;2022-10-30T13:40:54;14.05;;;4.50;;
30605;SDS011;17371;51.328;3.860;2022-10-30T13:43:23;11.80;;;3.80;;
30605;SDS011;17371;51.328;3.860;2022-10-30T13:45:54;9.30;;;3.47;;
30605;SDS011;17371;51.328;3.860;2022-10-30T13:48:44;8.57;;;3.30;;
30605;SDS011;17371;51.328;3.860;2022-10-30T13:51:21;9.63;;;3.88;;
30605;SDS011;17371;51.328;3.860;2022-10-30T13:53:57;8.50;;;3.00;;
30605;SDS011;17371;51.328;3.860;2022-10-30T13:56:29;13.15;;;3.40;;
30605;SDS011;17371;51.328;3.860;2022-10-30T13:58:57;8.73;;;2.87;;
30605;SDS011;17371;51.328;3.860;2022-10-30T14:01:31;10.27;;;2.47;;
30605;SDS011;17371;51.328;3.860;2022-10-30T14:04:00;12.93;;;2.92;;
30605;SDS011;17371;51.328;3.860;2022-10-30T14:06:30;9.65;;;3.13;;
30605;SDS011;17371;51.328;3.860;2022-10-30T14:09:04;11.32;;;3.20;;
30605;SDS011;17371;51.328;3.860;2022-10-30T14:11:35;7.27;;;2.20;;
30605;SDS011;17371;51.328;3.860;2022-10-30T14:14:04;14.55;;;2.60;;
30605;SDS011;17371;51.328;3.860;2022-10-30T14:16:40;12.87;;;2.30;;
30605;SDS011;17371;51.328;3.860;2022-10-30T14:19:06;10.25;;;1.98;;
30605;SDS011;17371;51.328;3.860;2022-10-30T14:21:39;11.13;;;2.10;;
30605;SDS011;17371;51.328;3.860;2022-10-30T14:24:11;10.50;;;1.67;;
30605;SDS011;17371;51.328;3.860;2022-10-30T14:26:38;11.48;;;2.38;;
30605;SDS011;17371;51.328;3.860;2022-10-30T14:37:55;8.85;;;1.50;;
30605;SDS011;17371;51.328;3.860;2022-10-30T14:40:33;7.17;;;1.70;;
30605;SDS011;17371;51.328;3.860;2022-10-30T14:43:01;8.15;;;2.25;;
30605;SDS011;17371;51.328;3.860;2022-10-30T14:45:29;8.05;;;2.40;;
30605;SDS011;17371;51.328;3.860;2022-10-30T14:47:59;5.47;;;1.77;;
30605;SDS011;17371;51.328;3.860;2022-10-30T14:50:31;10.03;;;2.53;;